sensor_id;sensor_type;location;lat;lon;timestamp;P1;durP1;ratioP1;P2;durP2;ratioP2
24715;SDS011;12822;50.124;8.678;2024-02-14T00:00:19;14.05;;;3.35;;
24715;SDS011;12822;50.124;8.678;2024-02-14T00:02:46;8.77;;;2.70;;
24715;SDS011;12822;50.124;8.678;2024-02-14T00:05:15;9.45;;;3.28;;
24715;SDS011;12822;50.124;8.678;2024-02-14T00:07:41;8.60;;;3.10;;
24715;SDS011;12822;50.124;8.678;2024-02-14T00:10:07;7.03;;;3.03;;
24715;SDS011;12822;50.124;8.678;2024-02-14T00:12:34;8.13;;;3.15;;
24715;SDS011;12822;50.124;8.678;2024-02-14T00:15:00;11.20;;;3.78;;
24715;SDS011;12822;50.124;8.678;2024-02-14T00:17:28;8.07;;;3.58;;
24715;SDS011;12822;50.124;8.678;2024-02-14T00:19:54;9.57;;;3.75;;
24715;SDS011;12822;50.124;8.678;2024-02-14T00:22:20;8.75;;;3.70;;
24715;SDS011;12822;50.124;8.678;2024-02-14T00:24:46;8.32;;;3.80;;
24715;SDS011;12822;50.124;8.678;2024-02-14T00:27:12;11.32;;;3.80;;
24715;SDS011;12822;50.124;8.678;2024-02-14T00:29:42;9.48;;;4.32;;
24715;SDS011;12822;50.124;8.678;2024-02-14T00:32:10;8.82;;;4.03;;
24715;SDS011;12822;50.124;8.678;2024-02-14T00:34:36;13.82;;;4.38;;
24715;SDS011;12822;50.124;8.678;2024-02-14T00:37:02;10.25;;;3.95;;
24715;SDS011;12822;50.124;8.678;2024-02-14T00:39:28;12.60;;;4.93;;
24715;SDS011;12822;50.124;8.678;2024-02-14T00:41:54;7.32;;;3.63;;
24715;SDS011;12822;50.124;8.678;2024-02-14T00:44:21;11.77;;;3.95;;
24715;SDS011;12822;50.124;8.678;2024-02-14T00:46:47;7.88;;;3.92;;
24715;SDS011;12822;50.124;8.678;2024-02-14T00:49:16;10.75;;;4.53;;
24715;SDS011;12822;50.124;8.678;2024-02-14T00:51:42;5.30;;;3.50;;
24715;SDS011;12822;50.124;8.678;2024-02-14T00:54:08;10.18;;;4.00;;
24715;SDS011;12822;50.124;8.678;2024-02-14T00:56:34;9.55;;;3.60;;
24715;SDS011;12822;50.124;8.678;2024-02-14T00:59:01;6.82;;;3.38;;
24715;SDS011;12822;50.124;8.678;2024-02-14T01:01:27;8.82;;;3.75;;
24715;SDS011;12822;50.124;8.678;2024-02-14T01:03:53;11.07;;;3.90;;
24715;SDS011;12822;50.124;8.678;2024-02-14T01:06:19;10.55;;;3.88;;
24715;SDS011;12822;50.124;8.678;2024-02-14T01:08:45;7.20;;;3.88;;
24715;SDS011;12822;50.124;8.678;2024-02-14T01:11:11;7.35;;;4.30;;
24715;SDS011;12822;50.124;8.678;2024-02-14T01:13:37;9.00;;;3.92;;
24715;SDS011;12822;50.124;8.678;2024-02-14T01:16:03;7.28;;;4.15;;
24715;SDS011;12822;50.124;8.678;2024-02-14T01:18:29;10.90;;;4.75;;
24715;SDS011;12822;50.124;8.678;2024-02-14T01:20:56;9.07;;;4.07;;
24715;SDS011;12822;50.124;8.678;2024-02-14T01:23:23;9.98;;;4.28;;
24715;SDS011;12822;50.124;8.678;2024-02-14T01:25:49;9.05;;;4.25;;
24715;SDS011;12822;50.124;8.678;2024-02-14T01:28:15;10.68;;;4.50;;
24715;SDS011;12822;50.124;8.678;2024-02-14T01:30:42;9.73;;;4.68;;
24715;SDS011;12822;50.124;8.678;2024-02-14T01:33:08;11.40;;;4.55;;
24715;SDS011;12822;50.124;8.678;2024-02-14T01:35:34;10.07;;;4.57;;
24715;SDS011;12822;50.124;8.678;2024-02-14T01:38:00;14.00;;;4.90;;
24715;SDS011;12822;50.124;8.678;2024-02-14T01:40:28;10.57;;;4.43;;
24715;SDS011;12822;50.124;8.678;2024-02-14T01:42:54;10.55;;;4.38;;
24715;SDS011;12822;50.124;8.678;2024-02-14T01:45:20;12.93;;;4.93;;
24715;SDS011;12822;50.124;8.678;2024-02-14T01:47:46;10.50;;;4.03;;
24715;SDS011;12822;50.124;8.678;2024-02-14T01:50:13;13.52;;;4.28;;
24715;SDS011;12822;50.124;8.678;2024-02-14T01:52:39;10.25;;;4.38;;
24715;SDS011;12822;50.124;8.678;2024-02-14T01:55:05;10.55;;;4.50;;
24715;SDS011;12822;50.124;8.678;2024-02-14T01:57:33;11.35;;;4.18;;
24715;SDS011;12822;50.124;8.678;2024-02-14T01:59:59;10.20;;;4.18;;
24715;SDS011;12822;50.124;8.678;2024-02-14T02:02:26;10.80;;;4.30;;
24715;SDS011;12822;50.124;8.678;2024-02-14T02:04:52;8.45;;;3.72;;
24715;SDS011;12822;50.124;8.678;2024-02-14T02:07:18;7.90;;;3.92;;
24715;SDS011;12822;50.124;8.678;2024-02-14T02:09:45;8.27;;;3.90;;
24715;SDS011;12822;50.124;8.678;2024-02-14T02:12:11;11.23;;;3.70;;
24715;SDS011;12822;50.124;8.678;2024-02-14T02:14:37;12.38;;;3.92;;
24715;SDS011;12822;50.124;8.678;2024-02-14T02:17:05;10.15;;;3.80;;
24715;SDS011;12822;50.124;8.678;2024-02-14T02:19:33;6.97;;;3.28;;
24715;SDS011;12822;50.124;8.678;2024-02-14T02:21:59;5.82;;;3.10;;
24715;SDS011;12822;50.124;8.678;2024-02-14T02:24:25;10.30;;;3.42;;
24715;SDS011;12822;50.124;8.678;2024-02-14T02:26:51;5.97;;;3.40;;
24715;SDS011;12822;50.124;8.678;2024-02-14T02:29:17;10.02;;;3.75;;
24715;SDS011;12822;50.124;8.678;2024-02-14T02:31:44;10.10;;;3.55;;
24715;SDS011;12822;50.124;8.678;2024-02-14T02:34:10;10.30;;;4.07;;
24715;SDS011;12822;50.124;8.678;2024-02-14T02:36:36;10.07;;;3.78;;
24715;SDS011;12822;50.124;8.678;2024-02-14T02:39:03;11.27;;;3.95;;
24715;SDS011;12822;50.124;8.678;2024-02-14T02:41:29;9.65;;;3.50;;
24715;SDS011;12822;50.124;8.678;2024-02-14T02:43:59;7.70;;;3.20;;
24715;SDS011;12822;50.124;8.678;2024-02-14T02:46:26;10.35;;;3.80;;
24715;SDS011;12822;50.124;8.678;2024-02-14T02:48:52;9.00;;;4.15;;
24715;SDS011;12822;50.124;8.678;2024-02-14T02:51:22;7.07;;;3.00;;
24715;SDS011;12822;50.124;8.678;2024-02-14T02:53:48;11.27;;;4.18;;
24715;SDS011;12822;50.124;8.678;2024-02-14T02:56:14;8.30;;;3.55;;
24715;SDS011;12822;50.124;8.678;2024-02-14T02:58:40;10.50;;;3.33;;
24715;SDS011;12822;50.124;8.678;2024-02-14T03:01:09;9.70;;;3.97;;
24715;SDS011;12822;50.124;8.678;2024-02-14T03:03:36;8.30;;;3.67;;
24715;SDS011;12822;50.124;8.678;2024-02-14T03:06:03;8.63;;;3.92;;
24715;SDS011;12822;50.124;8.678;2024-02-14T03:08:30;10.55;;;3.65;;
24715;SDS011;12822;50.124;8.678;2024-02-14T03:11:02;9.93;;;3.80;;
24715;SDS011;12822;50.124;8.678;2024-02-14T03:13:28;8.73;;;3.65;;
24715;SDS011;12822;50.124;8.678;2024-02-14T03:15:54;11.75;;;3.65;;
24715;SDS011;12822;50.124;8.678;2024-02-14T03:18:22;8.13;;;3.40;;
24715;SDS011;12822;50.124;8.678;2024-02-14T03:20:48;14.98;;;3.92;;
24715;SDS011;12822;50.124;8.678;2024-02-14T03:23:15;9.00;;;4.00;;
24715;SDS011;12822;50.124;8.678;2024-02-14T03:25:41;11.85;;;3.30;;
24715;SDS011;12822;50.124;8.678;2024-02-14T03:28:07;9.48;;;3.42;;
24715;SDS011;12822;50.124;8.678;2024-02-14T03:30:34;10.05;;;3.65;;
24715;SDS011;12822;50.124;8.678;2024-02-14T03:33:00;8.15;;;3.75;;
24715;SDS011;12822;50.124;8.678;2024-02-14T03:35:26;11.38;;;4.05;;
24715;SDS011;12822;50.124;8.678;2024-02-14T03:37:52;8.15;;;3.75;;
24715;SDS011;12822;50.124;8.678;2024-02-14T03:40:19;12.25;;;4.03;;
24715;SDS011;12822;50.124;8.678;2024-02-14T03:42:48;10.63;;;4.07;;
24715;SDS011;12822;50.124;8.678;2024-02-14T03:45:15;11.65;;;3.55;;
24715;SDS011;12822;50.124;8.678;2024-02-14T03:47:41;8.88;;;3.45;;
24715;SDS011;12822;50.124;8.678;2024-02-14T03:50:10;9.30;;;3.70;;
24715;SDS011;12822;50.124;8.678;2024-02-14T03:52:36;8.05;;;3.70;;
24715;SDS011;12822;50.124;8.678;2024-02-14T03:55:02;9.68;;;3.40;;
24715;SDS011;12822;50.124;8.678;2024-02-14T03:57:28;6.60;;;3.35;;
24715;SDS011;12822;50.124;8.678;2024-02-14T03:59:54;9.70;;;3.47;;
24715;SDS011;12822;50.124;8.678;2024-02-14T04:02:23;8.38;;;3.15;;
24715;SDS011;12822;50.124;8.678;2024-02-14T04:04:52;10.65;;;3.22;;
24715;SDS011;12822;50.124;8.678;2024-02-14T04:07:19;10.13;;;3.83;;
24715;SDS011;12822;50.124;8.678;2024-02-14T04:09:45;8.82;;;3.35;;
24715;SDS011;12822;50.124;8.678;2024-02-14T04:12:11;11.27;;;3.95;;
24715;SDS011;12822;50.124;8.678;2024-02-14T04:14:37;11.55;;;3.53;;
24715;SDS011;12822;50.124;8.678;2024-02-14T04:17:04;9.13;;;3.35;;
24715;SDS011;12822;50.124;8.678;2024-02-14T04:19:32;9.70;;;3.60;;
24715;SDS011;12822;50.124;8.678;2024-02-14T04:21:59;11.82;;;3.53;;
24715;SDS011;12822;50.124;8.678;2024-02-14T04:24:25;8.48;;;3.65;;
24715;SDS011;12822;50.124;8.678;2024-02-14T04:26:52;8.80;;;3.42;;
24715;SDS011;12822;50.124;8.678;2024-02-14T04:29:20;9.00;;;3.45;;
24715;SDS011;12822;50.124;8.678;2024-02-14T04:31:46;10.43;;;4.35;;
24715;SDS011;12822;50.124;8.678;2024-02-14T04:34:12;6.68;;;3.88;;
24715;SDS011;12822;50.124;8.678;2024-02-14T04:36:39;11.10;;;3.60;;
24715;SDS011;12822;50.124;8.678;2024-02-14T04:39:05;11.30;;;4.18;;
24715;SDS011;12822;50.124;8.678;2024-02-14T04:41:34;6.80;;;3.35;;
24715;SDS011;12822;50.124;8.678;2024-02-14T04:44:02;11.93;;;3.72;;
24715;SDS011;12822;50.124;8.678;2024-02-14T04:46:28;11.60;;;4.25;;
24715;SDS011;12822;50.124;8.678;2024-02-14T04:48:54;10.93;;;3.80;;
24715;SDS011;12822;50.124;8.678;2024-02-14T04:51:20;11.95;;;4.13;;
24715;SDS011;12822;50.124;8.678;2024-02-14T04:53:46;12.05;;;4.13;;
24715;SDS011;12822;50.124;8.678;2024-02-14T04:56:13;12.50;;;3.65;;
24715;SDS011;12822;50.124;8.678;2024-02-14T04:58:39;11.00;;;3.85;;
24715;SDS011;12822;50.124;8.678;2024-02-14T05:01:05;12.05;;;4.43;;
24715;SDS011;12822;50.124;8.678;2024-02-14T05:03:32;11.38;;;4.40;;
24715;SDS011;12822;50.124;8.678;2024-02-14T05:05:58;19.58;;;3.80;;
24715;SDS011;12822;50.124;8.678;2024-02-14T05:08:27;15.75;;;4.25;;
24715;SDS011;12822;50.124;8.678;2024-02-14T05:10:53;8.40;;;4.10;;
24715;SDS011;12822;50.124;8.678;2024-02-14T05:13:20;8.82;;;3.97;;
24715;SDS011;12822;50.124;8.678;2024-02-14T05:15:46;14.75;;;4.13;;
24715;SDS011;12822;50.124;8.678;2024-02-14T05:18:12;11.10;;;4.18;;
24715;SDS011;12822;50.124;8.678;2024-02-14T05:20:38;8.32;;;3.85;;
24715;SDS011;12822;50.124;8.678;2024-02-14T05:23:04;11.05;;;3.88;;
24715;SDS011;12822;50.124;8.678;2024-02-14T05:25:30;14.27;;;4.18;;
24715;SDS011;12822;50.124;8.678;2024-02-14T05:27:57;10.70;;;4.00;;
24715;SDS011;12822;50.124;8.678;2024-02-14T05:30:24;11.65;;;3.90;;
24715;SDS011;12822;50.124;8.678;2024-02-14T05:32:51;12.20;;;3.90;;
24715;SDS011;12822;50.124;8.678;2024-02-14T05:35:17;10.40;;;3.95;;
24715;SDS011;12822;50.124;8.678;2024-02-14T05:37:43;10.32;;;4.05;;
24715;SDS011;12822;50.124;8.678;2024-02-14T05:40:15;9.90;;;3.83;;
24715;SDS011;12822;50.124;8.678;2024-02-14T05:42:41;9.60;;;4.43;;
24715;SDS011;12822;50.124;8.678;2024-02-14T05:45:08;12.95;;;4.40;;
24715;SDS011;12822;50.124;8.678;2024-02-14T05:47:35;12.95;;;4.28;;
24715;SDS011;12822;50.124;8.678;2024-02-14T05:50:01;7.63;;;3.75;;
24715;SDS011;12822;50.124;8.678;2024-02-14T05:52:27;10.95;;;4.57;;
24715;SDS011;12822;50.124;8.678;2024-02-14T05:54:53;10.70;;;3.67;;
24715;SDS011;12822;50.124;8.678;2024-02-14T05:57:19;9.20;;;3.85;;
24715;SDS011;12822;50.124;8.678;2024-02-14T05:59:45;10.30;;;3.85;;
24715;SDS011;12822;50.124;8.678;2024-02-14T06:02:11;10.45;;;4.35;;
24715;SDS011;12822;50.124;8.678;2024-02-14T06:04:37;11.10;;;4.25;;
24715;SDS011;12822;50.124;8.678;2024-02-14T06:07:03;9.52;;;3.97;;
24715;SDS011;12822;50.124;8.678;2024-02-14T06:09:31;8.70;;;3.55;;
24715;SDS011;12822;50.124;8.678;2024-02-14T06:11:57;16.35;;;4.50;;
24715;SDS011;12822;50.124;8.678;2024-02-14T06:14:23;13.15;;;3.67;;
24715;SDS011;12822;50.124;8.678;2024-02-14T06:16:49;13.13;;;3.95;;
24715;SDS011;12822;50.124;8.678;2024-02-14T06:19:15;10.60;;;3.75;;
24715;SDS011;12822;50.124;8.678;2024-02-14T06:21:41;19.13;;;4.00;;
24715;SDS011;12822;50.124;8.678;2024-02-14T06:24:07;10.95;;;3.88;;
24715;SDS011;12822;50.124;8.678;2024-02-14T06:26:35;11.68;;;4.15;;
24715;SDS011;12822;50.124;8.678;2024-02-14T06:29:01;9.82;;;3.90;;
24715;SDS011;12822;50.124;8.678;2024-02-14T06:31:27;11.55;;;3.75;;
24715;SDS011;12822;50.124;8.678;2024-02-14T06:33:53;9.23;;;3.72;;
24715;SDS011;12822;50.124;8.678;2024-02-14T06:36:19;14.75;;;4.50;;
24715;SDS011;12822;50.124;8.678;2024-02-14T06:38:45;8.18;;;3.33;;
24715;SDS011;12822;50.124;8.678;2024-02-14T06:41:12;8.75;;;3.95;;
24715;SDS011;12822;50.124;8.678;2024-02-14T06:43:38;8.93;;;3.90;;
24715;SDS011;12822;50.124;8.678;2024-02-14T06:46:06;10.25;;;3.78;;
24715;SDS011;12822;50.124;8.678;2024-02-14T06:48:32;12.50;;;3.95;;
24715;SDS011;12822;50.124;8.678;2024-02-14T06:50:59;16.98;;;3.83;;
24715;SDS011;12822;50.124;8.678;2024-02-14T06:53:25;10.13;;;3.53;;
24715;SDS011;12822;50.124;8.678;2024-02-14T06:55:51;8.82;;;3.58;;
24715;SDS011;12822;50.124;8.678;2024-02-14T06:58:17;11.05;;;3.90;;
24715;SDS011;12822;50.124;8.678;2024-02-14T07:00:43;10.75;;;3.53;;
24715;SDS011;12822;50.124;8.678;2024-02-14T07:03:09;12.50;;;3.42;;
24715;SDS011;12822;50.124;8.678;2024-02-14T07:05:35;10.98;;;3.67;;
24715;SDS011;12822;50.124;8.678;2024-02-14T07:08:01;12.98;;;4.03;;
24715;SDS011;12822;50.124;8.678;2024-02-14T07:10:27;10.38;;;3.78;;
24715;SDS011;12822;50.124;8.678;2024-02-14T07:12:53;11.05;;;3.53;;
24715;SDS011;12822;50.124;8.678;2024-02-14T07:15:19;12.85;;;3.72;;
24715;SDS011;12822;50.124;8.678;2024-02-14T07:17:45;9.25;;;3.70;;
24715;SDS011;12822;50.124;8.678;2024-02-14T07:20:11;14.90;;;4.18;;
24715;SDS011;12822;50.124;8.678;2024-02-14T07:22:38;14.82;;;4.78;;
24715;SDS011;12822;50.124;8.678;2024-02-14T07:25:04;15.68;;;3.97;;
24715;SDS011;12822;50.124;8.678;2024-02-14T07:27:32;12.77;;;4.10;;
24715;SDS011;12822;50.124;8.678;2024-02-14T07:29:59;13.15;;;4.72;;
24715;SDS011;12822;50.124;8.678;2024-02-14T07:32:24;9.63;;;3.72;;
24715;SDS011;12822;50.124;8.678;2024-02-14T07:34:52;12.27;;;3.85;;
24715;SDS011;12822;50.124;8.678;2024-02-14T07:37:18;9.52;;;4.05;;
24715;SDS011;12822;50.124;8.678;2024-02-14T07:39:45;12.57;;;4.38;;
24715;SDS011;12822;50.124;8.678;2024-02-14T07:42:12;14.25;;;4.30;;
24715;SDS011;12822;50.124;8.678;2024-02-14T07:44:38;11.13;;;4.10;;
24715;SDS011;12822;50.124;8.678;2024-02-14T07:47:04;9.10;;;4.03;;
24715;SDS011;12822;50.124;8.678;2024-02-14T07:49:30;13.20;;;3.95;;
24715;SDS011;12822;50.124;8.678;2024-02-14T07:51:57;10.23;;;3.70;;
24715;SDS011;12822;50.124;8.678;2024-02-14T07:54:23;15.57;;;4.30;;
24715;SDS011;12822;50.124;8.678;2024-02-14T07:56:48;8.82;;;3.92;;
24715;SDS011;12822;50.124;8.678;2024-02-14T07:59:15;14.00;;;3.88;;
24715;SDS011;12822;50.124;8.678;2024-02-14T08:01:41;11.32;;;3.80;;
24715;SDS011;12822;50.124;8.678;2024-02-14T08:04:08;7.53;;;4.07;;
24715;SDS011;12822;50.124;8.678;2024-02-14T08:06:34;10.73;;;3.83;;
24715;SDS011;12822;50.124;8.678;2024-02-14T08:09:00;10.68;;;3.90;;
24715;SDS011;12822;50.124;8.678;2024-02-14T08:11:31;9.88;;;3.80;;
24715;SDS011;12822;50.124;8.678;2024-02-14T08:13:57;10.10;;;4.10;;
24715;SDS011;12822;50.124;8.678;2024-02-14T08:16:24;11.02;;;4.00;;
24715;SDS011;12822;50.124;8.678;2024-02-14T08:18:50;10.20;;;4.47;;
24715;SDS011;12822;50.124;8.678;2024-02-14T08:21:23;12.75;;;4.20;;
24715;SDS011;12822;50.124;8.678;2024-02-14T08:23:49;9.13;;;3.60;;
24715;SDS011;12822;50.124;8.678;2024-02-14T08:26:16;9.27;;;3.50;;
24715;SDS011;12822;50.124;8.678;2024-02-14T08:28:42;8.18;;;3.80;;
24715;SDS011;12822;50.124;8.678;2024-02-14T08:31:11;9.25;;;3.47;;
24715;SDS011;12822;50.124;8.678;2024-02-14T08:33:37;13.68;;;4.15;;
24715;SDS011;12822;50.124;8.678;2024-02-14T08:36:04;10.70;;;3.70;;
24715;SDS011;12822;50.124;8.678;2024-02-14T08:38:30;11.63;;;4.43;;
24715;SDS011;12822;50.124;8.678;2024-02-14T08:40:57;9.57;;;3.45;;
24715;SDS011;12822;50.124;8.678;2024-02-14T08:43:23;9.02;;;3.47;;
24715;SDS011;12822;50.124;8.678;2024-02-14T08:45:53;10.10;;;3.92;;
24715;SDS011;12822;50.124;8.678;2024-02-14T08:48:19;8.88;;;3.28;;
24715;SDS011;12822;50.124;8.678;2024-02-14T08:50:45;10.43;;;3.80;;
24715;SDS011;12822;50.124;8.678;2024-02-14T08:53:12;9.18;;;3.28;;
24715;SDS011;12822;50.124;8.678;2024-02-14T08:55:39;9.23;;;3.55;;
24715;SDS011;12822;50.124;8.678;2024-02-14T08:58:05;7.22;;;3.67;;
24715;SDS011;12822;50.124;8.678;2024-02-14T09:00:31;9.88;;;3.58;;
24715;SDS011;12822;50.124;8.678;2024-02-14T09:03:00;8.35;;;3.13;;
24715;SDS011;12822;50.124;8.678;2024-02-14T09:05:26;12.98;;;3.28;;
24715;SDS011;12822;50.124;8.678;2024-02-14T09:07:53;9.55;;;3.55;;
24715;SDS011;12822;50.124;8.678;2024-02-14T09:10:19;12.90;;;3.72;;
24715;SDS011;12822;50.124;8.678;2024-02-14T09:12:45;8.00;;;3.75;;
24715;SDS011;12822;50.124;8.678;2024-02-14T09:15:11;11.00;;;3.42;;
24715;SDS011;12822;50.124;8.678;2024-02-14T09:17:38;13.55;;;3.35;;
24715;SDS011;12822;50.124;8.678;2024-02-14T09:20:05;7.10;;;3.75;;
24715;SDS011;12822;50.124;8.678;2024-02-14T09:22:34;9.73;;;3.45;;
24715;SDS011;12822;50.124;8.678;2024-02-14T09:25:04;10.07;;;3.75;;
24715;SDS011;12822;50.124;8.678;2024-02-14T09:27:30;11.93;;;3.35;;
24715;SDS011;12822;50.124;8.678;2024-02-14T09:29:57;9.75;;;3.58;;
24715;SDS011;12822;50.124;8.678;2024-02-14T09:32:23;9.13;;;3.35;;
24715;SDS011;12822;50.124;8.678;2024-02-14T09:34:49;6.68;;;3.08;;
24715;SDS011;12822;50.124;8.678;2024-02-14T09:37:15;14.02;;;3.42;;
24715;SDS011;12822;50.124;8.678;2024-02-14T09:39:42;8.77;;;3.47;;
24715;SDS011;12822;50.124;8.678;2024-02-14T09:42:09;11.55;;;3.55;;
24715;SDS011;12822;50.124;8.678;2024-02-14T09:44:37;12.80;;;3.58;;
24715;SDS011;12822;50.124;8.678;2024-02-14T09:47:05;11.00;;;3.45;;
24715;SDS011;12822;50.124;8.678;2024-02-14T09:49:31;5.72;;;3.63;;
24715;SDS011;12822;50.124;8.678;2024-02-14T09:51:57;9.63;;;3.83;;
24715;SDS011;12822;50.124;8.678;2024-02-14T09:54:23;8.18;;;3.40;;
24715;SDS011;12822;50.124;8.678;2024-02-14T09:56:52;13.90;;;3.40;;
24715;SDS011;12822;50.124;8.678;2024-02-14T09:59:22;10.13;;;3.83;;
24715;SDS011;12822;50.124;8.678;2024-02-14T10:01:49;10.68;;;3.80;;
24715;SDS011;12822;50.124;8.678;2024-02-14T10:04:16;10.07;;;3.72;;
24715;SDS011;12822;50.124;8.678;2024-02-14T10:06:44;9.32;;;3.40;;
24715;SDS011;12822;50.124;8.678;2024-02-14T10:09:10;10.80;;;3.35;;
24715;SDS011;12822;50.124;8.678;2024-02-14T10:11:36;12.82;;;3.33;;
24715;SDS011;12822;50.124;8.678;2024-02-14T10:14:06;13.05;;;3.20;;
24715;SDS011;12822;50.124;8.678;2024-02-14T10:16:34;9.65;;;3.28;;
24715;SDS011;12822;50.124;8.678;2024-02-14T10:19:01;7.47;;;3.30;;
24715;SDS011;12822;50.124;8.678;2024-02-14T10:21:29;9.93;;;3.45;;
24715;SDS011;12822;50.124;8.678;2024-02-14T10:24:01;5.35;;;3.03;;
24715;SDS011;12822;50.124;8.678;2024-02-14T10:26:30;10.88;;;3.45;;
24715;SDS011;12822;50.124;8.678;2024-02-14T10:28:57;6.55;;;2.60;;
24715;SDS011;12822;50.124;8.678;2024-02-14T10:31:26;5.95;;;3.00;;
24715;SDS011;12822;50.124;8.678;2024-02-14T10:33:53;7.75;;;2.78;;
24715;SDS011;12822;50.124;8.678;2024-02-14T10:36:20;6.70;;;2.80;;
24715;SDS011;12822;50.124;8.678;2024-02-14T10:38:47;7.82;;;2.88;;
24715;SDS011;12822;50.124;8.678;2024-02-14T10:41:14;8.50;;;3.13;;
24715;SDS011;12822;50.124;8.678;2024-02-14T10:43:41;7.18;;;2.80;;
24715;SDS011;12822;50.124;8.678;2024-02-14T10:46:09;6.95;;;2.70;;
24715;SDS011;12822;50.124;8.678;2024-02-14T10:48:37;8.43;;;3.53;;
24715;SDS011;12822;50.124;8.678;2024-02-14T10:51:04;9.13;;;3.67;;
24715;SDS011;12822;50.124;8.678;2024-02-14T10:53:30;8.60;;;2.97;;
24715;SDS011;12822;50.124;8.678;2024-02-14T10:55:59;9.45;;;3.40;;
24715;SDS011;12822;50.124;8.678;2024-02-14T10:58:25;6.60;;;2.75;;
24715;SDS011;12822;50.124;8.678;2024-02-14T11:00:54;7.28;;;2.88;;
24715;SDS011;12822;50.124;8.678;2024-02-14T11:03:21;13.35;;;2.90;;
24715;SDS011;12822;50.124;8.678;2024-02-14T11:05:48;8.27;;;3.03;;
24715;SDS011;12822;50.124;8.678;2024-02-14T11:08:15;6.63;;;2.75;;
24715;SDS011;12822;50.124;8.678;2024-02-14T11:10:51;7.05;;;2.80;;
24715;SDS011;12822;50.124;8.678;2024-02-14T11:13:18;5.93;;;2.40;;
24715;SDS011;12822;50.124;8.678;2024-02-14T11:15:44;4.95;;;2.50;;
24715;SDS011;12822;50.124;8.678;2024-02-14T11:18:12;5.93;;;2.28;;
24715;SDS011;12822;50.124;8.678;2024-02-14T11:20:38;6.97;;;2.67;;
24715;SDS011;12822;50.124;8.678;2024-02-14T11:23:06;5.10;;;2.50;;
24715;SDS011;12822;50.124;8.678;2024-02-14T11:25:36;9.00;;;2.33;;
24715;SDS011;12822;50.124;8.678;2024-02-14T11:28:18;4.78;;;2.00;;
24715;SDS011;12822;50.124;8.678;2024-02-14T11:30:49;6.22;;;2.60;;
24715;SDS011;12822;50.124;8.678;2024-02-14T11:33:16;6.72;;;2.10;;
24715;SDS011;12822;50.124;8.678;2024-02-14T11:35:48;9.15;;;2.47;;
24715;SDS011;12822;50.124;8.678;2024-02-14T11:38:16;5.32;;;2.17;;
24715;SDS011;12822;50.124;8.678;2024-02-14T11:40:42;6.50;;;2.38;;
24715;SDS011;12822;50.124;8.678;2024-02-14T11:45:38;4.25;;;2.38;;
24715;SDS011;12822;50.124;8.678;2024-02-14T11:48:07;5.88;;;2.20;;
24715;SDS011;12822;50.124;8.678;2024-02-14T11:50:33;5.57;;;2.67;;
24715;SDS011;12822;50.124;8.678;2024-02-14T11:52:59;7.95;;;2.50;;
24715;SDS011;12822;50.124;8.678;2024-02-14T11:55:28;9.20;;;2.67;;
24715;SDS011;12822;50.124;8.678;2024-02-14T11:57:55;9.57;;;2.83;;
24715;SDS011;12822;50.124;8.678;2024-02-14T12:00:21;7.97;;;2.20;;
24715;SDS011;12822;50.124;8.678;2024-02-14T12:02:48;6.15;;;2.45;;
24715;SDS011;12822;50.124;8.678;2024-02-14T12:05:15;4.50;;;2.20;;
24715;SDS011;12822;50.124;8.678;2024-02-14T12:07:41;6.15;;;2.38;;
24715;SDS011;12822;50.124;8.678;2024-02-14T12:10:08;5.45;;;2.38;;
24715;SDS011;12822;50.124;8.678;2024-02-14T12:12:35;4.97;;;2.30;;
24715;SDS011;12822;50.124;8.678;2024-02-14T12:15:02;6.18;;;2.30;;
24715;SDS011;12822;50.124;8.678;2024-02-14T12:17:28;4.47;;;2.25;;
24715;SDS011;12822;50.124;8.678;2024-02-14T12:20:05;3.80;;;2.05;;
24715;SDS011;12822;50.124;8.678;2024-02-14T12:22:31;11.57;;;2.50;;
24715;SDS011;12822;50.124;8.678;2024-02-14T12:24:57;5.47;;;2.00;;
24715;SDS011;12822;50.124;8.678;2024-02-14T12:27:23;5.43;;;2.50;;
24715;SDS011;12822;50.124;8.678;2024-02-14T12:29:49;4.28;;;2.10;;
24715;SDS011;12822;50.124;8.678;2024-02-14T12:32:17;5.20;;;2.58;;
24715;SDS011;12822;50.124;8.678;2024-02-14T12:34:44;6.05;;;2.55;;
24715;SDS011;12822;50.124;8.678;2024-02-14T12:37:10;11.23;;;2.40;;
24715;SDS011;12822;50.124;8.678;2024-02-14T12:39:36;5.70;;;2.47;;
24715;SDS011;12822;50.124;8.678;2024-02-14T12:42:03;8.15;;;2.55;;
24715;SDS011;12822;50.124;8.678;2024-02-14T12:44:29;7.18;;;2.92;;
24715;SDS011;12822;50.124;8.678;2024-02-14T12:46:56;6.05;;;2.90;;
24715;SDS011;12822;50.124;8.678;2024-02-14T12:49:22;5.95;;;2.35;;
24715;SDS011;12822;50.124;8.678;2024-02-14T12:51:51;4.68;;;2.53;;
24715;SDS011;12822;50.124;8.678;2024-02-14T12:54:17;6.75;;;2.58;;
24715;SDS011;12822;50.124;8.678;2024-02-14T12:56:43;5.60;;;2.42;;
24715;SDS011;12822;50.124;8.678;2024-02-14T12:59:11;7.38;;;2.97;;
24715;SDS011;12822;50.124;8.678;2024-02-14T13:01:40;5.35;;;2.50;;
24715;SDS011;12822;50.124;8.678;2024-02-14T13:04:08;8.23;;;2.75;;
24715;SDS011;12822;50.124;8.678;2024-02-14T13:06:34;8.98;;;3.00;;
24715;SDS011;12822;50.124;8.678;2024-02-14T13:09:02;9.23;;;3.10;;
24715;SDS011;12822;50.124;8.678;2024-02-14T13:11:31;8.10;;;3.45;;
24715;SDS011;12822;50.124;8.678;2024-02-14T13:13:57;7.50;;;2.53;;
24715;SDS011;12822;50.124;8.678;2024-02-14T13:16:23;7.45;;;2.88;;
24715;SDS011;12822;50.124;8.678;2024-02-14T13:18:49;9.55;;;3.53;;
24715;SDS011;12822;50.124;8.678;2024-02-14T13:21:15;9.55;;;2.70;;
24715;SDS011;12822;50.124;8.678;2024-02-14T13:23:42;7.13;;;2.88;;
24715;SDS011;12822;50.124;8.678;2024-02-14T13:26:08;7.60;;;3.10;;
24715;SDS011;12822;50.124;8.678;2024-02-14T13:28:34;6.78;;;2.55;;
24715;SDS011;12822;50.124;8.678;2024-02-14T13:31:00;7.68;;;2.80;;
24715;SDS011;12822;50.124;8.678;2024-02-14T13:33:26;5.00;;;2.90;;
24715;SDS011;12822;50.124;8.678;2024-02-14T13:35:52;9.70;;;3.55;;
24715;SDS011;12822;50.124;8.678;2024-02-14T13:38:19;7.88;;;3.10;;
24715;SDS011;12822;50.124;8.678;2024-02-14T13:40:45;6.10;;;3.08;;
24715;SDS011;12822;50.124;8.678;2024-02-14T13:43:11;10.27;;;2.95;;
24715;SDS011;12822;50.124;8.678;2024-02-14T13:45:41;8.00;;;3.42;;
24715;SDS011;12822;50.124;8.678;2024-02-14T13:48:07;5.07;;;2.92;;
24715;SDS011;12822;50.124;8.678;2024-02-14T13:50:34;5.10;;;2.55;;
24715;SDS011;12822;50.124;8.678;2024-02-14T13:53:00;9.57;;;3.33;;
24715;SDS011;12822;50.124;8.678;2024-02-14T13:55:26;5.57;;;2.97;;
24715;SDS011;12822;50.124;8.678;2024-02-14T13:57:52;4.55;;;2.55;;
24715;SDS011;12822;50.124;8.678;2024-02-14T14:00:18;5.28;;;3.03;;
24715;SDS011;12822;50.124;8.678;2024-02-14T14:02:44;8.13;;;2.90;;
24715;SDS011;12822;50.124;8.678;2024-02-14T14:05:11;6.78;;;3.00;;
24715;SDS011;12822;50.124;8.678;2024-02-14T14:07:39;8.85;;;3.30;;
24715;SDS011;12822;50.124;8.678;2024-02-14T14:10:06;8.55;;;3.50;;
24715;SDS011;12822;50.124;8.678;2024-02-14T14:12:32;12.52;;;3.30;;
24715;SDS011;12822;50.124;8.678;2024-02-14T14:14:58;9.57;;;3.50;;
24715;SDS011;12822;50.124;8.678;2024-02-14T14:17:24;6.85;;;3.10;;
24715;SDS011;12822;50.124;8.678;2024-02-14T14:19:51;7.28;;;3.88;;
24715;SDS011;12822;50.124;8.678;2024-02-14T14:22:17;9.35;;;3.65;;
24715;SDS011;12822;50.124;8.678;2024-02-14T14:24:43;6.40;;;3.38;;
24715;SDS011;12822;50.124;8.678;2024-02-14T14:27:09;6.85;;;3.72;;
24715;SDS011;12822;50.124;8.678;2024-02-14T14:29:41;7.80;;;3.50;;
24715;SDS011;12822;50.124;8.678;2024-02-14T14:32:07;6.13;;;2.83;;
24715;SDS011;12822;50.124;8.678;2024-02-14T14:34:33;6.18;;;3.58;;
24715;SDS011;12822;50.124;8.678;2024-02-14T14:36:59;8.07;;;3.70;;
24715;SDS011;12822;50.124;8.678;2024-02-14T14:39:26;6.85;;;3.30;;
24715;SDS011;12822;50.124;8.678;2024-02-14T14:41:52;8.18;;;3.30;;